Blue Springs, Alabama
Current Conditions -  °F | °C
As of 3:53 AM on Saturday 25 Oct 2014 (Local Time) from KHEY Reporting Station
Clear Clear  
Wind Chill: 44°   Ceiling: Unl
Heat Index: 46°   Visibility: 10mi
Dew Point: 44°   Wind: 5mph
Humidity: 93%   Direction: 320°NW
Pressure: 30.02"   Gusts: NA
Location:  31.6731°N, 85.5681°W
Report Text: KHEY 250853Z AUTO 32004KT 10SM CLR 08/07 A3002 RMK AO2 SLP054 T00780067 55006
Loading
Personal Weather Stations






























Interactive Weather Map
Tropical Storm Tracking
New forecast layout! Learn more

10-Day Weather Forecast

Advertisements
Track Severe Weather on mobile